createdAt,value
2019-01-22T00:09:34.089Z,36.4
2019-01-22T00:19:33.298Z,36.2
2019-01-22T00:29:32.505Z,36.9
2019-01-22T00:39:31.712Z,38.5
2019-01-22T00:49:30.969Z,38.8
2019-01-22T00:59:30.125Z,38.8
2019-01-22T01:09:29.333Z,38.8
2019-01-22T01:19:28.543Z,38.7
2019-01-22T01:29:27.749Z,38.6
2019-01-22T01:39:26.957Z,38.4
2019-01-22T01:49:26.163Z,38.4
2019-01-22T01:59:25.387Z,38.4
2019-01-22T02:09:24.577Z,38.1
2019-01-22T02:19:23.784Z,38.2
2019-01-22T02:29:22.991Z,38.1
2019-01-22T02:39:22.199Z,38.1
2019-01-22T02:49:21.406Z,38
2019-01-22T02:59:20.613Z,37.8
2019-01-22T03:09:19.821Z,37.8
2019-01-22T03:19:19.028Z,37.8
2019-01-22T03:29:18.235Z,37.9
2019-01-22T03:39:17.441Z,37.8
2019-01-22T03:49:16.648Z,37.7
2019-01-22T03:59:15.856Z,37.9
2019-01-22T04:09:15.061Z,37.8
2019-01-22T04:19:14.268Z,37.9
2019-01-22T04:29:13.482Z,38.1
2019-01-22T04:39:12.693Z,38.1
2019-01-22T04:49:11.907Z,38.1
2019-01-22T04:59:11.114Z,37.9
2019-01-22T05:09:10.329Z,37.8
2019-01-22T05:19:09.538Z,37.7
2019-01-22T05:29:08.752Z,37.4
2019-01-22T05:39:07.967Z,37.1
2019-01-22T05:49:07.182Z,40.4
2019-01-22T05:59:06.397Z,47.9
2019-01-22T06:09:05.610Z,42
2019-01-22T06:19:04.815Z,39.7
2019-01-22T06:29:04.024Z,38.9
2019-01-22T06:39:03.231Z,46.7
2019-01-22T06:49:02.439Z,47
2019-01-22T06:59:01.647Z,38.9
2019-01-22T07:09:00.854Z,38.1
2019-01-22T07:19:00.061Z,38.2
2019-01-22T07:28:59.267Z,37.8
2019-01-22T07:38:58.476Z,44.6
2019-01-22T07:48:57.732Z,40.3
2019-01-22T07:58:56.892Z,38.7
2019-01-22T08:08:56.096Z,38.8
2019-01-22T08:18:55.300Z,38.7
2019-01-22T08:28:54.508Z,38.6
2019-01-22T08:38:53.715Z,38.6
2019-01-22T08:48:52.917Z,38.7
2019-01-22T08:58:52.123Z,38.6
2019-01-22T09:08:51.329Z,38.9
2019-01-22T09:18:50.536Z,38.7
2019-01-22T09:28:49.742Z,38.8
2019-01-22T09:38:48.947Z,38.9
2019-01-22T09:48:48.152Z,39.3
2019-01-22T09:58:47.357Z,38.9
2019-01-22T10:08:46.565Z,37.9
2019-01-22T10:18:45.769Z,37.7
2019-01-22T10:28:44.981Z,37.6
2019-01-22T10:38:44.178Z,37.5
2019-01-22T10:48:43.388Z,37.8
2019-01-22T10:58:42.591Z,37.6
2019-01-22T11:08:41.801Z,37.6
2019-01-22T11:18:41.007Z,37.4
2019-01-22T11:28:40.206Z,37.3
2019-01-22T11:38:39.410Z,37
2019-01-22T11:48:38.615Z,37.1
2019-01-22T11:58:37.819Z,36.9
2019-01-22T12:08:37.025Z,36.8
2019-01-22T12:18:36.229Z,36.7
2019-01-22T12:28:35.436Z,36.8
2019-01-22T12:38:34.641Z,36.6
2019-01-22T12:48:33.843Z,41.4
2019-01-22T12:58:33.049Z,42.4
2019-01-22T13:08:32.252Z,38.8
2019-01-22T13:18:31.573Z,38.9
2019-01-22T13:28:30.660Z,38.6
2019-01-22T13:38:29.867Z,38.8
2019-01-22T13:48:29.076Z,42.3
2019-01-22T13:58:28.288Z,48.9
2019-01-22T14:08:27.503Z,43.4
2019-01-22T14:18:26.718Z,39.1
2019-01-22T14:28:25.928Z,41
2019-01-22T14:38:25.270Z,48.6
2019-01-22T14:48:24.482Z,44.5
2019-01-22T14:58:23.553Z,39.1
2019-01-22T15:08:22.766Z,42.2
2019-01-22T15:18:21.974Z,49.3
2019-01-22T15:28:21.189Z,48.3
2019-01-22T15:38:20.404Z,39.9
2019-01-22T15:48:19.607Z,40.1
2019-01-22T15:58:18.823Z,46.9
2019-01-22T16:08:18.029Z,49
2019-01-22T16:18:17.240Z,49.3
2019-01-22T16:28:16.460Z,44
2019-01-22T16:38:15.667Z,36.9
2019-01-22T16:48:14.881Z,36.8
2019-01-22T16:58:14.087Z,41.6
2019-01-22T17:08:13.304Z,41.3
2019-01-22T17:18:12.611Z,39.2
2019-01-22T17:28:11.725Z,38.9
2019-01-22T17:38:10.935Z,38.8
2019-01-22T17:48:10.149Z,38.9
2019-01-22T17:58:09.358Z,38.9
2019-01-22T18:18:08.293Z,39.3
2019-01-22T18:28:07.475Z,30.6
2019-01-22T18:38:06.397Z,33.9
2019-01-22T18:48:05.409Z,35.7
2019-01-22T18:58:04.633Z,37.4
2019-01-22T19:08:03.836Z,37.9
2019-01-22T19:18:03.069Z,32.9
2019-01-22T19:28:02.270Z,27.2
2019-01-22T19:38:01.494Z,36.4
2019-01-22T19:48:00.716Z,40.8
2019-01-22T19:57:59.956Z,35.1
2019-01-22T20:07:59.153Z,36.9
2019-01-22T20:17:58.368Z,40
2019-01-22T20:27:57.585Z,38.6
2019-01-22T20:37:56.801Z,38.2
2019-01-22T20:47:56.052Z,38.3
2019-01-22T20:57:55.411Z,38.4
2019-01-22T21:07:54.451Z,38.6
2019-01-22T21:17:53.663Z,38.7
2019-01-22T21:27:52.876Z,38.8
2019-01-22T21:37:52.090Z,39
2019-01-22T21:47:51.304Z,38.8
2019-01-22T21:57:50.513Z,38.6
2019-01-22T22:07:49.726Z,38.6
2019-01-22T22:17:48.940Z,38.7
2019-01-22T22:27:48.151Z,38.7
2019-01-22T22:37:47.362Z,38.8
2019-01-22T22:47:46.573Z,38.8
2019-01-22T22:57:45.783Z,38.7
2019-01-22T23:07:44.993Z,38.8
2019-01-22T23:17:44.202Z,38.7
2019-01-22T23:27:43.412Z,38.8
2019-01-22T23:37:42.624Z,39
2019-01-22T23:47:41.831Z,38.9
2019-01-22T23:57:41.041Z,39
